Dixiana, Alabama
Current Conditions -  °F | °C
As of 3:53 AM on Saturday 29 Nov 2014 (Local Time) from KBHM Reporting Station
Clear Clear  
Wind Chill: 39°   Ceiling: Unl
Heat Index: 43°   Visibility: 10mi
Dew Point: 22°   Wind: 6mph
Humidity: 43%   Direction: 170°S
Pressure: 30.25"   Gusts: NA
Location:  33.7345°N, 86.6508°W
Report Text: KBHM 290953Z 17005KT 10SM CLR 06/M06 A3025 RMK AO2 SLP245 T00611056
Loading
Personal Weather Stations






























Interactive Weather Map New forecast layout! Learn more

10-Day Weather Forecast

Advertisements
Track Severe Weather on mobile